Time;durP1;ratioP1;P1;durP2;ratioP2;P2;SDS_P1;SDS_P2;PMS_P1;PMS_P2;Temp;Humidity;BMP_temperature;BMP_pressure;BME280_temperature;BME280_humidity;BME280_pressure;Samples;Min_cycle;Max_cycle;Signal;HPM_P1;HPM_P2
2021/09/16 00:00:29;;;;;;;9.02;5.62;;;;;;;23.94;44.40;100760.44;4418602;32;20085;-68
2021/09/16 00:02:55;;;;;;;11.05;6.60;;;;;;;24.00;44.06;100757.56;4421712;32;20195;-68
2021/09/16 00:05:21;;;;;;;12.07;6.28;;;;;;;24.05;44.12;100759.63;4420008;32;20126;-67
2021/09/16 00:07:47;;;;;;;15.45;6.32;;;;;;;24.06;43.86;100767.72;4420452;32;20085;-67
2021/09/16 00:10:14;;;;;;;10.23;6.10;;;;;;;24.08;44.04;100767.19;4422246;32;20095;-67
2021/09/16 00:12:40;;;;;;;10.93;6.10;;;;;;;24.22;44.06;100763.16;4418761;32;20155;-68
2021/09/16 00:15:09;;;;;;;8.13;5.82;;;;;;;24.09;44.10;100763.78;4421386;32;20083;-68
2021/09/16 00:17:35;;;;;;;10.02;6.35;;;;;;;24.31;43.80;100771.47;4419634;32;20073;-67
2021/09/16 00:20:02;;;;;;;12.93;6.53;;;;;;;24.28;43.83;100767.56;4421425;32;20101;-67
2021/09/16 00:22:28;;;;;;;12.30;6.30;;;;;;;24.19;43.94;100756.38;4419336;32;20034;-67
2021/09/16 00:24:53;;;;;;;12.10;6.68;;;;;;;24.31;43.72;100754.22;4420144;32;20531;-67
2021/09/16 00:27:19;;;;;;;11.80;7.00;;;;;;;24.28;43.70;100750.31;4420974;32;20104;-67
2021/09/16 00:29:44;;;;;;;15.10;6.75;;;;;;;24.14;44.05;100750.69;4422256;32;20091;-67
2021/09/16 00:32:10;;;;;;;16.23;7.15;;;;;;;24.22;43.62;100755.31;4418827;32;20110;-67
2021/09/16 00:34:37;;;;;;;14.13;7.03;;;;;;;24.05;44.19;100751.00;4418314;32;20067;-67
2021/09/16 00:37:03;;;;;;;13.80;6.65;;;;;;;24.19;43.97;100742.00;4420683;32;20092;-67
2021/09/16 00:39:29;;;;;;;12.98;7.95;;;;;;;23.98;44.48;100745.78;4423344;32;20038;-67
2021/09/16 00:41:55;;;;;;;15.73;8.27;;;;;;;24.09;44.33;100752.28;4421295;32;20076;-67
2021/09/16 00:44:21;;;;;;;15.13;7.72;;;;;;;24.13;44.35;100744.12;4415506;32;20126;-67
2021/09/16 00:46:47;;;;;;;17.73;8.07;;;;;;;24.14;44.41;100739.19;4419730;32;20097;-68
2021/09/16 00:49:13;;;;;;;17.42;7.10;;;;;;;24.19;44.39;100741.22;4421822;32;20095;-68
2021/09/16 00:51:39;;;;;;;15.00;6.93;;;;;;;24.16;44.41;100743.06;4419378;32;20065;-68
2021/09/16 00:54:08;;;;;;;11.15;6.95;;;;;;;24.37;43.98;100746.31;4420300;32;20038;-68
2021/09/16 00:56:35;;;;;;;14.60;7.65;;;;;;;24.45;43.90;100739.44;4422298;32;20052;-68
2021/09/16 00:59:03;;;;;;;10.55;6.62;;;;;;;24.55;43.72;100739.91;4419622;32;20081;-68
2021/09/16 01:01:30;;;;;;;17.10;8.20;;;;;;;24.54;43.68;100753.50;4419054;32;20077;-68
2021/09/16 01:03:56;;;;;;;14.05;7.60;;;;;;;24.40;44.00;100746.03;4420415;32;20183;-68
2021/09/16 01:06:24;;;;;;;18.58;7.55;;;;;;;24.45;43.53;100739.44;4423823;32;20078;-68
2021/09/16 01:08:51;;;;;;;11.65;7.10;;;;;;;24.45;43.99;100748.06;4418291;32;20389;-68
2021/09/16 01:11:18;;;;;;;12.63;6.10;;;;;;;24.45;43.95;100747.31;4419387;32;20041;-68
2021/09/16 01:13:44;;;;;;;11.55;6.22;;;;;;;24.29;44.16;100742.44;4420072;32;20440;-68
2021/09/16 01:16:10;;;;;;;12.15;6.22;;;;;;;24.44;43.94;100743.66;4417668;32;20055;-68
2021/09/16 01:18:37;;;;;;;9.30;5.85;;;;;;;24.43;43.95;100732.69;4419486;32;20072;-68
2021/09/16 01:21:02;;;;;;;9.18;5.68;;;;;;;24.51;43.96;100742.31;4417383;32;20060;-68
2021/09/16 01:23:28;;;;;;;13.00;6.30;;;;;;;24.54;43.79;100735.47;4419671;32;20371;-68
2021/09/16 01:25:53;;;;;;;8.32;6.05;;;;;;;24.24;44.19;100738.28;4422491;32;20493;-68
2021/09/16 01:28:19;;;;;;;12.55;5.82;;;;;;;24.49;43.80;100730.53;4417600;32;20313;-68
2021/09/16 01:30:46;;;;;;;11.52;5.90;;;;;;;24.36;44.09;100724.63;4419869;32;20049;-68
2021/09/16 01:33:12;;;;;;;12.45;6.28;;;;;;;24.84;43.15;100731.28;4418986;32;20109;-68
2021/09/16 01:35:38;;;;;;;12.30;6.15;;;;;;;24.89;43.19;100730.47;4421759;32;20141;-68
2021/09/16 01:38:04;;;;;;;11.07;6.37;;;;;;;24.86;43.27;100722.91;4420860;32;20480;-68
2021/09/16 01:40:29;;;;;;;12.48;5.70;;;;;;;24.95;43.22;100721.78;4423762;32;20519;-68
2021/09/16 01:42:55;;;;;;;12.02;6.30;;;;;;;24.86;43.19;100725.00;4421821;32;20026;-68
2021/09/16 01:45:24;;;;;;;11.32;5.87;;;;;;;24.91;43.21;100722.06;4421109;32;20018;-68
2021/09/16 01:47:50;;;;;;;11.02;5.50;;;;;;;25.09;42.96;100724.22;4425158;32;20064;-68
2021/09/16 01:50:19;;;;;;;11.25;5.72;;;;;;;25.08;42.94;100733.41;4423920;32;20610;-68
2021/09/16 01:52:45;;;;;;;8.88;5.18;;;;;;;25.20;42.76;100727.00;4422789;32;20546;-68
2021/09/16 01:55:11;;;;;;;13.10;5.32;;;;;;;25.07;42.90;100726.88;4423546;32;20021;-68
2021/09/16 01:57:40;;;;;;;8.65;5.28;;;;;;;25.16;42.71;100732.25;4424258;32;20117;-68
2021/09/16 02:00:08;;;;;;;12.55;6.03;;;;;;;25.20;42.58;100734.84;4422048;32;20077;-68
2021/09/16 02:02:34;;;;;;;15.23;5.97;;;;;;;25.34;41.97;100731.56;4424689;32;20073;-68
2021/09/16 02:05:01;;;;;;;14.00;5.75;;;;;;;25.20;42.52;100735.63;4427439;32;20075;-68
2021/09/16 02:07:27;;;;;;;10.50;5.40;;;;;;;25.20;42.56;100735.63;4424032;32;20026;-68
2021/09/16 02:09:53;;;;;;;10.70;6.10;;;;;;;25.20;42.45;100729.09;4425636;32;20375;-68
2021/09/16 02:12:19;;;;;;;10.02;5.43;;;;;;;25.37;42.48;100730.50;4421088;32;20038;-68
2021/09/16 02:14:45;;;;;;;9.85;5.57;;;;;;;25.29;42.69;100726.62;4421697;32;20018;-68
2021/09/16 02:17:11;;;;;;;8.38;4.90;;;;;;;25.30;42.58;100728.19;4426013;32;20074;-68
2021/09/16 02:19:37;;;;;;;8.02;5.43;;;;;;;25.32;42.54;100730.56;4424892;32;20047;-68
2021/09/16 02:22:03;;;;;;;11.23;5.95;;;;;;;25.31;42.66;100728.94;4422350;32;20138;-68
2021/09/16 02:24:29;;;;;;;9.20;5.25;;;;;;;25.39;42.56;100727.06;4420464;32;20130;-68
2021/09/16 02:26:54;;;;;;;12.00;5.82;;;;;;;25.37;42.49;100730.50;4426287;32;20085;-68
2021/09/16 02:29:20;;;;;;;10.75;5.22;;;;;;;25.40;42.52;100734.38;4424521;32;20026;-68
2021/09/16 02:31:45;;;;;;;15.02;5.95;;;;;;;25.43;42.35;100726.78;4423075;32;20064;-68
2021/09/16 02:34:11;;;;;;;10.15;6.15;;;;;;;25.40;42.53;100725.72;4422750;32;20106;-68
2021/09/16 02:36:37;;;;;;;12.48;7.32;;;;;;;25.46;41.95;100729.31;4423826;32;20073;-68
2021/09/16 02:39:03;;;;;;;12.20;7.03;;;;;;;25.29;42.19;100725.84;4424829;32;20362;-68
2021/09/16 02:41:28;;;;;;;11.85;6.97;;;;;;;25.44;42.05;100726.22;4424273;32;20826;-68
2021/09/16 02:43:54;;;;;;;10.00;6.97;;;;;;;25.50;42.20;100726.16;4423649;32;20516;-68
2021/09/16 02:46:20;;;;;;;11.60;6.93;;;;;;;25.60;41.82;100713.72;4423226;32;20053;-68
2021/09/16 02:48:46;;;;;;;16.98;8.00;;;;;;;25.53;41.93;100710.66;4426959;32;20083;-68
2021/09/16 02:51:12;;;;;;;11.27;7.18;;;;;;;25.59;41.58;100708.50;4423312;32;20045;-68
2021/09/16 02:53:37;;;;;;;13.02;8.13;;;;;;;25.73;41.48;100716.66;4423013;32;20060;-68
2021/09/16 02:56:03;;;;;;;12.88;7.75;;;;;;;25.90;41.30;100707.78;4421820;32;20022;-68
2021/09/16 02:58:29;;;;;;;11.88;7.45;;;;;;;26.13;40.62;100709.03;4423793;32;20068;-68
2021/09/16 03:00:55;;;;;;;12.13;7.43;;;;;;;26.19;40.57;100712.63;4420528;32;20021;-68
2021/09/16 03:03:20;;;;;;;11.05;6.53;;;;;;;26.25;40.23;100704.66;4426739;32;20243;-68
2021/09/16 03:05:46;;;;;;;13.40;7.40;;;;;;;26.33;40.11;100709.25;4425052;32;20145;-68
2021/09/16 03:08:13;;;;;;;11.55;7.28;;;;;;;26.35;40.21;100709.47;4429064;32;20366;-68
2021/09/16 03:10:40;;;;;;;13.57;7.47;;;;;;;26.48;40.20;100712.41;4422427;32;20072;-68
2021/09/16 03:13:06;;;;;;;12.00;7.53;;;;;;;26.44;40.33;100699.62;4423891;32;20061;-68
2021/09/16 03:15:31;;;;;;;11.57;6.65;;;;;;;26.36;40.51;100710.25;4422698;32;20049;-68
2021/09/16 03:17:58;;;;;;;13.43;7.65;;;;;;;26.33;40.48;100706.38;4425333;32;20050;-68
2021/09/16 03:20:24;;;;;;;11.70;6.75;;;;;;;26.25;40.63;100693.91;4425027;32;20523;-68
2021/09/16 03:22:50;;;;;;;10.75;6.60;;;;;;;26.29;40.63;100700.12;4424117;32;20021;-68
2021/09/16 03:25:16;;;;;;;10.98;7.93;;;;;;;26.34;40.37;100693.50;4423578;32;20082;-68
2021/09/16 03:27:42;;;;;;;12.30;7.22;;;;;;;26.24;40.42;100697.34;4422348;32;20051;-68
2021/09/16 03:30:12;;;;;;;13.70;7.22;;;;;;;26.04;41.28;100700.78;4419361;32;20050;-68
2021/09/16 03:32:38;;;;;;;14.93;7.95;;;;;;;26.28;41.00;100698.56;4425177;32;20049;-68
2021/09/16 03:35:04;;;;;;;13.07;7.20;;;;;;;26.12;41.38;100698.84;4424141;32;20071;-68
2021/09/16 03:37:30;;;;;;;13.38;7.32;;;;;;;26.05;41.27;100702.34;4422463;32;20021;-68
2021/09/16 03:39:56;;;;;;;15.65;8.45;;;;;;;25.90;41.43;100699.13;4423244;32;20094;-68
2021/09/16 03:42:22;;;;;;;19.80;8.25;;;;;;;25.82;41.75;100696.09;4424691;32;20094;-68
2021/09/16 03:44:47;;;;;;;21.10;9.15;;;;;;;25.77;41.63;100699.06;4424168;32;20049;-68
2021/09/16 03:47:14;;;;;;;15.88;8.60;;;;;;;25.73;41.62;100695.69;4422773;32;20021;-68
2021/09/16 03:49:41;;;;;;;13.70;7.82;;;;;;;25.70;41.68;100694.69;4423836;32;20093;-68
2021/09/16 03:52:10;;;;;;;16.73;7.87;;;;;;;25.80;41.76;100709.50;4426743;32;20182;-68
2021/09/16 03:54:36;;;;;;;15.05;7.75;;;;;;;25.87;41.76;100711.78;4424143;32;20520;-68
2021/09/16 03:57:03;;;;;;;17.33;8.25;;;;;;;25.67;42.02;100712.31;4422061;32;20069;-68
2021/09/16 03:59:29;;;;;;;14.38;7.55;;;;;;;25.68;42.21;100711.75;4422578;32;20061;-68
2021/09/16 04:01:55;;;;;;;22.40;8.10;;;;;;;25.65;42.21;100714.97;4421718;32;20594;-68
2021/09/16 04:04:21;;;;;;;13.80;7.00;;;;;;;25.72;42.23;100709.34;4420533;32;20078;-68
2021/09/16 04:06:46;;;;;;;11.00;6.80;;;;;;;25.66;42.39;100720.19;4421896;32;20128;-68
2021/09/16 04:09:12;;;;;;;14.25;7.43;;;;;;;25.61;42.18;100715.25;4423345;32;20549;-68
2021/09/16 04:11:38;;;;;;;12.48;7.35;;;;;;;25.63;42.27;100714.72;4422807;32;21106;-68
2021/09/16 04:14:04;;;;;;;18.83;8.98;;;;;;;25.51;42.61;100716.19;4425662;32;20061;-68
2021/09/16 04:16:30;;;;;;;13.50;7.47;;;;;;;25.47;42.82;100710.75;4423166;32;20029;-68
2021/09/16 04:18:56;;;;;;;10.77;6.30;;;;;;;25.25;43.20;100717.50;4424003;32;20404;-68
2021/09/16 04:21:22;;;;;;;12.90;6.87;;;;;;;25.39;43.25;100715.53;4424292;32;20414;-68
2021/09/16 04:23:49;;;;;;;13.02;7.30;;;;;;;25.28;43.43;100719.31;4421675;32;20367;-68
2021/09/16 04:26:15;;;;;;;14.98;7.25;;;;;;;25.18;43.62;100723.88;4421411;32;20053;-68
2021/09/16 04:28:44;;;;;;;12.95;6.47;;;;;;;25.00;44.01;100715.16;4424988;32;20093;-68
2021/09/16 04:31:10;;;;;;;12.57;7.15;;;;;;;24.85;44.16;100718.47;4415454;32;20026;-68
2021/09/16 04:33:36;;;;;;;17.23;7.75;;;;;;;25.08;43.91;100714.03;4422310;32;20179;-68
2021/09/16 04:36:02;;;;;;;13.07;8.18;;;;;;;24.86;44.29;100705.63;4420125;32;20157;-68
2021/09/16 04:38:28;;;;;;;16.48;8.05;;;;;;;24.97;44.37;100710.47;4423243;32;20395;-68
2021/09/16 04:40:54;;;;;;;14.87;7.40;;;;;;;24.80;44.61;100707.78;4421609;32;20366;-68
2021/09/16 04:43:19;;;;;;;12.30;7.28;;;;;;;24.74;44.40;100707.06;4425506;32;20391;-68
2021/09/16 04:45:45;;;;;;;11.90;6.70;;;;;;;24.57;44.90;100703.50;4423446;32;20129;-68
2021/09/16 04:48:11;;;;;;;14.05;7.55;;;;;;;24.44;45.06;100700.50;4422524;32;20410;-68
2021/09/16 04:50:36;;;;;;;14.18;7.40;;;;;;;24.35;45.38;100703.72;4422870;32;20458;-68
2021/09/16 04:53:03;;;;;;;13.18;7.65;;;;;;;24.42;45.31;100703.12;4422285;32;20110;-68
2021/09/16 04:55:29;;;;;;;12.13;7.35;;;;;;;24.54;45.29;100704.59;4423053;32;20091;-68
2021/09/16 04:57:55;;;;;;;10.27;6.32;;;;;;;24.48;45.31;100695.22;4424083;32;20063;-68
2021/09/16 05:00:21;;;;;;;17.30;8.10;;;;;;;24.20;45.86;100696.78;4423658;32;20089;-68
2021/09/16 05:02:48;;;;;;;17.80;8.63;;;;;;;24.14;45.98;100696.81;4422630;32;20518;-68
2021/09/16 05:05:13;;;;;;;15.07;9.15;;;;;;;24.01;46.27;100690.91;4420965;32;20017;-68
2021/09/16 05:07:40;;;;;;;14.35;8.55;;;;;;;23.88;46.41;100696.44;4423988;32;20026;-68
2021/09/16 05:10:06;;;;;;;14.23;8.43;;;;;;;23.91;46.33;100703.22;4420510;32;20098;-68
2021/09/16 05:12:32;;;;;;;15.50;9.27;;;;;;;23.77;46.74;100687.87;4424765;32;20030;-68
2021/09/16 05:14:58;;;;;;;18.17;8.70;;;;;;;23.76;46.67;100697.03;4423945;32;20065;-68
2021/09/16 05:17:24;;;;;;;16.12;8.77;;;;;;;23.75;46.68;100698.34;4425760;32;20363;-68
2021/09/16 05:19:51;;;;;;;16.52;8.30;;;;;;;23.70;46.70;100699.16;4427431;32;20340;-68
2021/09/16 05:22:17;;;;;;;14.00;8.52;;;;;;;23.68;46.76;100691.06;4426845;32;20042;-68
2021/09/16 05:24:43;;;;;;;18.95;9.82;;;;;;;23.57;47.01;100696.09;4426093;32;20092;-68
2021/09/16 05:27:09;;;;;;;17.45;9.90;;;;;;;23.40;47.12;100694.06;4425004;32;20445;-68
2021/09/16 05:29:35;;;;;;;18.67;9.85;;;;;;;23.41;47.39;100694.87;4423625;32;20159;-68
2021/09/16 05:32:00;;;;;;;19.02;10.18;;;;;;;23.39;47.29;100694.59;4425625;32;20069;-68
2021/09/16 05:34:26;;;;;;;17.35;10.50;;;;;;;23.28;47.63;100698.31;4422844;32;20097;-68
2021/09/16 05:36:52;;;;;;;20.52;9.43;;;;;;;23.23;47.58;100701.97;4422490;32;20097;-68
2021/09/16 05:39:17;;;;;;;17.85;10.18;;;;;;;23.14;47.96;100693.59;4423658;32;20077;-68
2021/09/16 05:41:43;;;;;;;15.45;9.35;;;;;;;23.11;47.83;100703.28;4425097;32;20466;-68
2021/09/16 05:44:09;;;;;;;17.65;10.25;;;;;;;23.12;47.82;100706.94;4424797;32;20095;-68
2021/09/16 05:46:35;;;;;;;19.80;10.07;;;;;;;23.18;47.50;100702.75;4424020;32;20073;-68
2021/09/16 05:49:01;;;;;;;24.15;11.00;;;;;;;23.10;47.70;100712.44;4425058;32;20054;-68
2021/09/16 05:51:26;;;;;;;22.50;10.57;;;;;;;23.01;48.02;100724.22;4426947;32;20064;-68
2021/09/16 05:53:52;;;;;;;21.90;10.73;;;;;;;23.09;47.86;100726.00;4423499;32;20013;-68
2021/09/16 05:56:18;;;;;;;21.75;11.00;;;;;;;23.22;47.54;100725.44;4426724;32;20066;-68
2021/09/16 05:58:43;;;;;;;20.20;9.90;;;;;;;23.05;47.67;100727.56;4426567;32;20901;-68
2021/09/16 06:01:09;;;;;;;17.33;10.73;;;;;;;23.16;47.45;100727.53;4427225;32;20565;-68
2021/09/16 06:03:35;;;;;;;16.33;9.95;;;;;;;23.12;47.54;100729.91;4427114;32;20532;-68
2021/09/16 06:06:00;;;;;;;18.85;10.20;;;;;;;23.14;47.59;100744.53;4425951;32;20077;-68
2021/09/16 06:08:27;;;;;;;26.20;10.40;;;;;;;23.07;47.57;100737.22;4417730;32;20069;-68
2021/09/16 06:10:53;;;;;;;19.20;10.13;;;;;;;23.10;47.33;100744.03;4418419;32;20422;-68
2021/09/16 06:13:19;;;;;;;19.83;10.32;;;;;;;23.09;47.48;100748.19;4421946;32;20060;-68
2021/09/16 06:15:44;;;;;;;16.77;10.30;;;;;;;23.27;46.84;100751.31;4423987;32;20461;-68
2021/09/16 06:18:11;;;;;;;20.40;9.80;;;;;;;23.37;46.98;100749.69;4424662;32;20065;-68
2021/09/16 06:20:36;;;;;;;22.02;10.85;;;;;;;23.41;46.86;100752.31;4421160;32;20030;-68
2021/09/16 06:23:02;;;;;;;18.73;10.63;;;;;;;23.61;46.59;100756.91;4417931;32;20060;-68
2021/09/16 06:25:28;;;;;;;22.33;11.15;;;;;;;23.60;46.55;100755.37;4421482;32;20034;-68
2021/09/16 06:27:56;;;;;;;23.77;11.35;;;;;;;23.62;46.47;100755.63;4425591;32;20082;-68
2021/09/16 06:30:22;;;;;;;19.00;11.02;;;;;;;23.73;46.42;100749.81;4420524;32;20073;-68
2021/09/16 06:32:49;;;;;;;21.65;12.00;;;;;;;23.83;45.90;100757.59;4421778;32;20056;-68
2021/09/16 06:35:15;;;;;;;18.70;11.18;;;;;;;23.95;46.05;100755.47;4420920;32;20111;-68
2021/09/16 06:37:42;;;;;;;18.55;12.15;;;;;;;24.07;45.82;100766.41;4413297;32;20061;-68
2021/09/16 06:40:08;;;;;;;28.10;12.23;;;;;;;24.18;45.69;100754.84;4416332;32;20453;-68
2021/09/16 06:42:34;;;;;;;22.02;11.95;;;;;;;24.15;45.65;100750.16;4418317;32;20182;-68
2021/09/16 06:45:00;;;;;;;20.98;11.80;;;;;;;24.30;45.37;100756.28;4419306;32;20045;-68
2021/09/16 06:47:26;;;;;;;23.33;12.57;;;;;;;24.35;45.18;100766.19;4410187;32;20126;-68
2021/09/16 06:49:52;;;;;;;24.17;11.45;;;;;;;24.52;45.06;100759.03;4414001;32;20069;-69
2021/09/16 06:52:22;;;;;;;22.50;11.95;;;;;;;24.71;44.57;100762.81;4408555;32;20435;-69
2021/09/16 06:54:50;;;;;;;25.15;11.82;;;;;;;24.80;44.47;100774.00;4417707;32;20077;-69
2021/09/16 06:57:16;;;;;;;21.25;11.60;;;;;;;25.07;43.92;100775.06;4407247;32;20444;-69
2021/09/16 06:59:42;;;;;;;22.45;12.20;;;;;;;25.12;43.40;100766.34;4409020;32;20496;-69
2021/09/16 07:02:09;;;;;;;17.50;10.73;;;;;;;25.40;43.37;100771.84;4405959;32;20165;-69
2021/09/16 07:04:35;;;;;;;18.05;11.18;;;;;;;25.37;43.56;100780.78;4407356;32;20146;-69
2021/09/16 07:07:03;;;;;;;18.00;11.43;;;;;;;25.34;43.46;100783.44;4406776;32;21415;-69
2021/09/16 07:09:31;;;;;;;22.37;12.27;;;;;;;25.64;42.86;100783.34;4406132;32;20186;-69
2021/09/16 07:11:58;;;;;;;20.52;11.57;;;;;;;25.88;42.88;100782.50;4404846;32;20419;-69
2021/09/16 07:14:26;;;;;;;20.23;12.00;;;;;;;25.89;42.64;100781.97;4405323;32;20069;-69
2021/09/16 07:16:53;;;;;;;21.20;12.25;;;;;;;25.81;42.53;100783.13;4407687;32;20173;-69
2021/09/16 07:19:19;;;;;;;29.83;11.98;;;;;;;25.84;42.91;100791.50;4402693;32;20794;-69
2021/09/16 07:21:45;;;;;;;17.73;11.12;;;;;;;25.73;42.73;100773.53;4404494;32;20117;-69
2021/09/16 07:24:12;;;;;;;21.95;12.25;;;;;;;26.10;42.11;100788.81;4404426;32;20421;-69
2021/09/16 07:26:38;;;;;;;20.98;11.85;;;;;;;26.29;41.85;100785.94;4404043;32;20034;-69
2021/09/16 07:29:03;;;;;;;18.35;10.93;;;;;;;26.42;41.79;100789.63;4407379;32;20119;-69
2021/09/16 07:31:30;;;;;;;19.50;11.75;;;;;;;26.58;41.43;100799.37;4403900;32;20374;-69
2021/09/16 07:33:57;;;;;;;19.77;11.12;;;;;;;26.94;40.85;100801.41;4405258;32;20097;-69
2021/09/16 07:36:22;;;;;;;23.83;12.25;;;;;;;27.01;40.76;100797.91;4403722;32;21106;-69
2021/09/16 07:38:48;;;;;;;27.52;12.15;;;;;;;26.96;40.77;100798.75;4404122;32;20042;-69
2021/09/16 07:41:15;;;;;;;23.77;12.95;;;;;;;27.02;40.55;100789.97;4404312;32;20072;-68
2021/09/16 07:43:40;;;;;;;25.75;12.40;;;;;;;27.01;40.58;100797.91;4405037;32;20087;-71
2021/09/16 07:46:06;;;;;;;21.77;13.10;;;;;;;27.06;40.41;100790.47;4408402;32;20038;-68
2021/09/16 07:48:32;;;;;;;28.65;14.00;;;;;;;26.97;40.43;100791.66;4404558;32;20647;-70
2021/09/16 07:50:58;;;;;;;26.33;13.10;;;;;;;27.13;40.15;100807.91;4407022;32;20132;-69
2021/09/16 07:53:24;;;;;;;22.87;13.52;;;;;;;26.96;40.10;100798.75;4400674;32;20169;-69
2021/09/16 07:55:50;;;;;;;22.40;13.23;;;;;;;27.10;40.25;100806.13;4407330;32;20077;-70
2021/09/16 07:58:16;;;;;;;20.60;13.23;;;;;;;27.21;39.90;100803.03;4405959;32;20329;-70
2021/09/16 08:00:41;;;;;;;25.25;14.40;;;;;;;27.38;39.53;100807.75;4402749;32;20058;-70
2021/09/16 08:03:07;;;;;;;21.12;13.85;;;;;;;27.05;39.84;100803.31;4398161;32;20702;-70
2021/09/16 08:05:33;;;;;;;25.55;13.20;;;;;;;27.42;39.44;100811.88;4404761;32;20073;-69
2021/09/16 08:07:59;;;;;;;20.37;13.00;;;;;;;27.44;39.35;100809.22;4408864;32;20265;-69
2021/09/16 08:10:25;;;;;;;23.85;13.43;;;;;;;27.69;38.98;100804.75;4407442;32;20148;-69
2021/09/16 08:12:51;;;;;;;21.08;13.05;;;;;;;27.75;38.87;100805.44;4409867;32;20105;-70
2021/09/16 08:15:18;;;;;;;25.88;11.27;;;;;;;28.11;38.39;100797.06;4406924;32;20463;-69
2021/09/16 08:17:44;;;;;;;21.77;12.30;;;;;;;28.34;37.89;100806.78;4407765;32;20107;-69
2021/09/16 08:20:11;;;;;;;18.70;11.98;;;;;;;28.37;37.80;100809.34;4407426;32;20054;-68
2021/09/16 08:22:37;;;;;;;16.48;11.30;;;;;;;28.50;37.74;100812.22;4411021;32;20069;-68
2021/09/16 08:25:06;;;;;;;22.13;12.55;;;;;;;28.58;37.58;100812.31;4407032;32;20418;-68
2021/09/16 08:27:33;;;;;;;18.00;11.32;;;;;;;28.63;37.42;100815.06;4404704;32;20092;-68
2021/09/16 08:29:59;;;;;;;21.25;13.05;;;;;;;28.60;37.49;100818.34;4404152;32;20088;-69
2021/09/16 08:32:25;;;;;;;18.23;12.30;;;;;;;28.39;37.78;100811.69;4400677;32;20158;-69
2021/09/16 08:34:51;;;;;;;24.33;12.95;;;;;;;28.48;37.59;100817.81;4404477;32;20405;-69
2021/09/16 08:37:16;;;;;;;19.98;12.77;;;;;;;28.41;37.67;100812.66;4408153;32;20053;-70
2021/09/16 08:39:42;;;;;;;17.08;11.75;;;;;;;28.53;37.67;100814.00;4406543;32;20080;-69
2021/09/16 08:42:08;;;;;;;23.83;13.50;;;;;;;28.97;37.32;100815.78;4404209;32;20119;-69
2021/09/16 08:44:35;;;;;;;19.85;11.52;;;;;;;29.19;36.80;100825.28;4409461;32;20064;-69
2021/09/16 08:47:02;;;;;;;17.15;10.85;;;;;;;29.45;36.12;100819.34;4407633;32;20144;-69
2021/09/16 08:49:28;;;;;;;16.80;11.40;;;;;;;29.47;35.92;100816.63;4407011;32;20401;-69
2021/09/16 08:51:55;;;;;;;24.48;11.93;;;;;;;29.28;36.32;100828.47;4407384;32;20091;-69
2021/09/16 08:54:21;;;;;;;18.17;12.40;;;;;;;29.56;35.88;100821.91;4412114;32;20182;-69
2021/09/16 08:56:48;;;;;;;23.55;13.93;;;;;;;29.93;35.50;100824.31;4411577;32;20061;-69
2021/09/16 08:59:13;;;;;;;21.20;14.93;;;;;;;30.02;35.30;100833.25;4406609;32;21354;-69
2021/09/16 09:01:40;;;;;;;22.62;14.57;;;;;;;30.08;35.42;100833.09;4409749;32;20415;-69
2021/09/16 09:04:06;;;;;;;22.37;15.10;;;;;;;30.02;35.16;100838.28;4411450;32;20168;-70
2021/09/16 09:06:36;;;;;;;19.17;14.05;;;;;;;30.12;35.02;100833.50;4410473;32;20371;-70
2021/09/16 09:09:19;;;;;;;18.17;12.32;;;;;;;30.72;34.16;100831.62;4409814;32;20046;-71
2021/09/16 09:14:29;;;;;;;18.33;13.00;;;;;;;31.22;33.88;100835.00;3972553;32;15157054;-71
2021/09/16 09:16:56;;;;;;;19.35;11.32;;;;;;;31.22;33.88;100835.00;4431970;32;20159;-72
2021/09/16 09:19:24;;;;;;;22.15;11.90;;;;;;;30.61;34.31;100834.09;4425538;32;20118;-69
2021/09/16 09:21:51;;;;;;;21.10;10.88;;;;;;;30.91;33.83;100833.41;4427317;32;20034;-69
2021/09/16 09:24:41;;;;;;;14.13;10.55;;;;;;;30.55;33.95;100830.59;4425557;32;20086;-69
2021/09/16 09:27:28;;;;;;;21.02;12.65;;;;;;;30.87;33.28;100842.53;4425752;32;20075;-69
2021/09/16 09:32:55;;;;;;;18.98;13.13;;;;;;;32.12;31.59;100838.59;3986793;31;15017904;-70
2021/09/16 09:40:49;;;;;;;12.15;8.60;;;;;;;32.87;29.76;100839.63;3971646;32;15024092;-70
2021/09/16 09:49:05;;;;;;;12.63;9.82;;;;;;;33.14;29.65;100853.06;3962338;32;15040801;-71
2021/09/16 09:57:14;;;;;;;17.02;11.35;;;;;;;33.31;29.51;100853.09;3969544;32;15022959;-70
2021/09/16 10:00:04;;;;;;;15.57;10.98;;;;;;;33.31;29.51;100853.09;4418276;32;20335;-70
2021/09/16 10:02:41;;;;;;;15.38;10.73;;;;;;;33.03;29.63;100853.53;4418170;32;20112;-70
2021/09/16 10:05:32;;;;;;;20.73;11.82;;;;;;;33.05;29.48;100847.09;4417756;32;20673;-71
2021/09/16 10:10:50;;;;;;;17.27;10.10;;;;;;;33.50;28.99;100861.34;3939436;32;15022835;-71
2021/09/16 10:13:18;;;;;;;15.18;9.57;;;;;;;33.50;28.99;100861.34;4385944;32;20441;-71
2021/09/16 10:15:44;;;;;;;19.95;9.57;;;;;;;33.48;28.75;100847.37;4383070;32;20117;-71
2021/09/16 10:18:10;;;;;;;9.90;7.40;;;;;;;33.35;28.55;100838.91;4388109;32;20095;-71
2021/09/16 10:20:36;;;;;;;11.38;7.25;;;;;;;33.76;27.67;100851.94;4384642;32;20517;-71
2021/09/16 10:23:05;;;;;;;12.80;7.32;;;;;;;33.56;27.73;100844.38;4383650;32;20147;-71
2021/09/16 10:25:33;;;;;;;15.88;7.95;;;;;;;33.23;28.49;100845.78;4377078;32;20085;-71
2021/09/16 10:28:03;;;;;;;24.95;7.55;;;;;;;32.65;29.46;100833.31;4386694;32;20168;-70
2021/09/16 10:30:32;;;;;;;10.32;6.80;;;;;;;32.82;29.16;100837.72;4386585;32;20166;-71
2021/09/16 10:41:34;;;;;;;5.65;4.32;;;;;;;35.61;25.78;100844.75;3985096;32;15036024;-69
2021/09/16 10:46:41;;;;;;;5.30;3.90;;;;;;;35.32;25.65;100832.97;3989682;31;15017252;-69
2021/09/16 10:54:46;;;;;;;5.28;3.58;;;;;;;34.32;26.55;100839.25;3969527;32;15033767;-69
2021/09/16 11:05:10;;;;;;;5.60;3.20;;;;;;;35.41;24.93;100843.97;3974350;32;15024237;-70
2021/09/16 11:15:31;;;;;;;3.55;2.62;;;;;;;36.74;22.95;100848.38;3979989;32;15021705;-69
2021/09/16 11:18:03;;;;;;;2.72;2.33;;;;;;;36.74;22.95;100848.38;4425624;32;20072;-69
2021/09/16 11:20:29;;;;;;;6.25;2.55;;;;;;;36.12;23.25;100845.19;4426112;32;20103;-69
2021/09/16 11:22:55;;;;;;;4.72;2.60;;;;;;;35.93;22.98;100839.31;4423710;32;20077;-68
2021/09/16 11:25:20;;;;;;;4.43;2.45;;;;;;;35.00;24.14;100829.59;4424593;32;20511;-68
2021/09/16 11:27:46;;;;;;;5.40;2.75;;;;;;;34.25;25.16;100828.44;4426282;32;20069;-68
2021/09/16 11:30:15;;;;;;;3.03;2.10;;;;;;;34.75;24.69;100818.03;4424144;32;20661;-68
2021/09/16 11:32:42;;;;;;;5.82;2.70;;;;;;;34.90;24.44;100817.06;4421077;32;20120;-69
2021/09/16 11:35:12;;;;;;;4.87;2.67;;;;;;;34.49;23.93;100824.66;4424999;32;20076;-68
2021/09/16 11:40:22;;;;;;;3.60;2.55;;;;;;;33.97;25.28;100821.00;3953312;32;15023177;-69
2021/09/16 11:42:50;;;;;;;4.30;2.50;;;;;;;33.97;25.28;100821.00;4408260;32;20152;-68
2021/09/16 11:48:22;;;;;;;3.65;2.30;;;;;;;33.92;25.18;100809.56;3966690;32;15024644;-70
2021/09/16 11:51:05;;;;;;;3.62;1.95;;;;;;;33.92;25.18;100809.56;4414282;32;20069;-69
2021/09/16 11:53:34;;;;;;;3.80;2.58;;;;;;;33.49;25.43;100807.25;4413793;32;20562;-69
2021/09/16 11:56:04;;;;;;;5.70;3.10;;;;;;;33.95;25.12;100817.91;4418592;32;20561;-69
2021/09/16 11:58:32;;;;;;;6.37;2.70;;;;;;;33.99;24.99;100805.81;4415024;32;20065;-69
2021/09/16 12:01:01;;;;;;;3.22;2.87;;;;;;;34.74;24.31;100813.56;4417359;32;20126;-69
2021/09/16 12:03:30;;;;;;;4.72;3.25;;;;;;;34.65;24.42;100798.88;4412318;32;20195;-69
2021/09/16 12:06:02;;;;;;;2.97;2.58;;;;;;;35.62;23.31;100802.41;4417151;32;20033;-69
2021/09/16 12:11:07;;;;;;;5.43;2.70;;;;;;;38.62;20.51;100814.03;3966939;32;15025532;-70
2021/09/16 12:13:38;;;;;;;4.28;3.12;;;;;;;38.62;20.51;100814.03;4431571;32;20061;-69
2021/09/16 12:18:54;;;;;;;5.47;4.20;;;;;;;37.81;19.84;100819.50;3971898;32;15023413;-70
2021/09/16 12:24:04;;;;;;;4.57;3.20;;;;;;;36.60;21.41;100820.94;3948594;32;15723494;-68